sensor_id;sensor_type;location;lat;lon;timestamp;temperature;humidity
11944;DHT22;6031;50.220;10.122;2023-09-19T00:01:40;15.80;99.90
11944;DHT22;6031;50.220;10.122;2023-09-19T00:04:07;15.70;99.90
11944;DHT22;6031;50.220;10.122;2023-09-19T00:06:38;15.70;99.90
11944;DHT22;6031;50.220;10.122;2023-09-19T00:09:04;15.80;99.90
11944;DHT22;6031;50.220;10.122;2023-09-19T00:11:30;15.90;99.90
11944;DHT22;6031;50.220;10.122;2023-09-19T00:13:57;16.00;99.90
11944;DHT22;6031;50.220;10.122;2023-09-19T00:16:25;16.00;96.50
11944;DHT22;6031;50.220;10.122;2023-09-19T00:18:51;16.00;67.50
11944;DHT22;6031;50.220;10.122;2023-09-19T00:21:17;16.00;1.00
11944;DHT22;6031;50.220;10.122;2023-09-19T00:23:42;16.00;1.00
11944;DHT22;6031;50.220;10.122;2023-09-19T00:26:08;16.00;1.00
11944;DHT22;6031;50.220;10.122;2023-09-19T00:28:33;16.00;1.00
11944;DHT22;6031;50.220;10.122;2023-09-19T00:30:59;16.00;1.00
11944;DHT22;6031;50.220;10.122;2023-09-19T00:33:28;16.00;1.00
11944;DHT22;6031;50.220;10.122;2023-09-19T00:35:56;16.00;1.00
11944;DHT22;6031;50.220;10.122;2023-09-19T00:38:23;16.10;1.00
11944;DHT22;6031;50.220;10.122;2023-09-19T00:40:52;16.00;1.00
11944;DHT22;6031;50.220;10.122;2023-09-19T00:43:18;16.00;1.00
11944;DHT22;6031;50.220;10.122;2023-09-19T00:45:46;15.90;1.00
11944;DHT22;6031;50.220;10.122;2023-09-19T00:48:14;15.90;1.00
11944;DHT22;6031;50.220;10.122;2023-09-19T00:50:42;15.90;1.00
11944;DHT22;6031;50.220;10.122;2023-09-19T00:53:09;15.90;1.00
11944;DHT22;6031;50.220;10.122;2023-09-19T00:55:38;15.80;1.00
11944;DHT22;6031;50.220;10.122;2023-09-19T00:58:04;15.90;1.00
11944;DHT22;6031;50.220;10.122;2023-09-19T01:00:33;15.90;16.10
11944;DHT22;6031;50.220;10.122;2023-09-19T01:03:03;16.00;1.00
11944;DHT22;6031;50.220;10.122;2023-09-19T01:05:29;16.10;1.00
11944;DHT22;6031;50.220;10.122;2023-09-19T01:07:55;16.10;1.00
11944;DHT22;6031;50.220;10.122;2023-09-19T01:10:21;16.00;1.00
11944;DHT22;6031;50.220;10.122;2023-09-19T01:21:23;15.70;1.00
11944;DHT22;6031;50.220;10.122;2023-09-19T01:26:31;15.80;99.90
11944;DHT22;6031;50.220;10.122;2023-09-19T01:29:23;15.80;1.00
11944;DHT22;6031;50.220;10.122;2023-09-19T01:31:59;15.80;1.00
11944;DHT22;6031;50.220;10.122;2023-09-19T01:34:26;16.00;1.00
11944;DHT22;6031;50.220;10.122;2023-09-19T01:36:52;15.90;1.00
11944;DHT22;6031;50.220;10.122;2023-09-19T01:39:17;16.00;1.00
11944;DHT22;6031;50.220;10.122;2023-09-19T01:42:10;16.00;1.00
11944;DHT22;6031;50.220;10.122;2023-09-19T01:47:41;16.10;1.00
11944;DHT22;6031;50.220;10.122;2023-09-19T01:53:08;16.10;1.00
11944;DHT22;6031;50.220;10.122;2023-09-19T01:55:42;16.20;1.00
11944;DHT22;6031;50.220;10.122;2023-09-19T01:58:27;16.20;1.00
11944;DHT22;6031;50.220;10.122;2023-09-19T02:00:56;16.00;1.00
11944;DHT22;6031;50.220;10.122;2023-09-19T02:03:24;16.00;1.00
11944;DHT22;6031;50.220;10.122;2023-09-19T02:05:51;16.00;1.00
11944;DHT22;6031;50.220;10.122;2023-09-19T02:08:18;16.00;1.00
11944;DHT22;6031;50.220;10.122;2023-09-19T02:10:44;15.90;1.00
11944;DHT22;6031;50.220;10.122;2023-09-19T02:13:18;15.90;1.00
11944;DHT22;6031;50.220;10.122;2023-09-19T02:15:45;16.00;1.00
11944;DHT22;6031;50.220;10.122;2023-09-19T02:18:12;16.00;1.00
11944;DHT22;6031;50.220;10.122;2023-09-19T02:20:37;16.10;1.00
11944;DHT22;6031;50.220;10.122;2023-09-19T02:23:03;16.20;1.00
11944;DHT22;6031;50.220;10.122;2023-09-19T02:25:29;16.20;1.00
11944;DHT22;6031;50.220;10.122;2023-09-19T02:27:56;16.20;1.00
11944;DHT22;6031;50.220;10.122;2023-09-19T02:30:24;16.30;1.00
11944;DHT22;6031;50.220;10.122;2023-09-19T02:32:50;16.20;1.00
11944;DHT22;6031;50.220;10.122;2023-09-19T02:35:16;16.20;1.00
11944;DHT22;6031;50.220;10.122;2023-09-19T02:37:41;16.20;1.00
11944;DHT22;6031;50.220;10.122;2023-09-19T02:40:07;16.20;1.00
11944;DHT22;6031;50.220;10.122;2023-09-19T02:42:45;16.20;1.00
11944;DHT22;6031;50.220;10.122;2023-09-19T02:45:12;16.20;1.00
11944;DHT22;6031;50.220;10.122;2023-09-19T02:47:40;16.20;1.00
11944;DHT22;6031;50.220;10.122;2023-09-19T02:50:06;16.20;1.00
11944;DHT22;6031;50.220;10.122;2023-09-19T02:52:31;16.20;1.00
11944;DHT22;6031;50.220;10.122;2023-09-19T02:54:57;16.20;1.00
11944;DHT22;6031;50.220;10.122;2023-09-19T02:57:22;16.20;1.00
11944;DHT22;6031;50.220;10.122;2023-09-19T02:59:49;16.20;1.00
11944;DHT22;6031;50.220;10.122;2023-09-19T03:02:15;16.20;1.00
11944;DHT22;6031;50.220;10.122;2023-09-19T03:04:41;16.30;1.00
11944;DHT22;6031;50.220;10.122;2023-09-19T03:07:06;16.30;1.00
11944;DHT22;6031;50.220;10.122;2023-09-19T03:09:32;16.30;1.00
11944;DHT22;6031;50.220;10.122;2023-09-19T03:11:58;16.30;1.00
11944;DHT22;6031;50.220;10.122;2023-09-19T03:14:24;16.20;1.00
11944;DHT22;6031;50.220;10.122;2023-09-19T03:16:50;16.00;37.20
11944;DHT22;6031;50.220;10.122;2023-09-19T03:19:17;16.00;99.90
11944;DHT22;6031;50.220;10.122;2023-09-19T03:21:43;15.90;99.90
11944;DHT22;6031;50.220;10.122;2023-09-19T03:24:08;15.80;99.90
11944;DHT22;6031;50.220;10.122;2023-09-19T03:26:34;15.70;99.90
11944;DHT22;6031;50.220;10.122;2023-09-19T03:29:03;15.60;99.90
11944;DHT22;6031;50.220;10.122;2023-09-19T03:31:31;15.50;99.90
11944;DHT22;6031;50.220;10.122;2023-09-19T03:33:57;15.50;99.90
11944;DHT22;6031;50.220;10.122;2023-09-19T03:36:22;15.50;99.90
11944;DHT22;6031;50.220;10.122;2023-09-19T03:38:48;15.50;99.90
11944;DHT22;6031;50.220;10.122;2023-09-19T03:41:13;15.50;99.90
11944;DHT22;6031;50.220;10.122;2023-09-19T03:43:42;15.40;99.90
11944;DHT22;6031;50.220;10.122;2023-09-19T03:46:07;15.40;99.90
11944;DHT22;6031;50.220;10.122;2023-09-19T03:48:33;15.40;99.90
11944;DHT22;6031;50.220;10.122;2023-09-19T03:50:58;15.40;99.90
11944;DHT22;6031;50.220;10.122;2023-09-19T03:53:24;15.40;99.90
11944;DHT22;6031;50.220;10.122;2023-09-19T03:55:49;15.40;99.90
11944;DHT22;6031;50.220;10.122;2023-09-19T03:58:15;15.30;99.90
11944;DHT22;6031;50.220;10.122;2023-09-19T04:00:40;15.40;99.90
11944;DHT22;6031;50.220;10.122;2023-09-19T04:03:06;15.40;99.90
11944;DHT22;6031;50.220;10.122;2023-09-19T04:05:33;15.40;99.90
11944;DHT22;6031;50.220;10.122;2023-09-19T04:07:59;15.40;99.90
11944;DHT22;6031;50.220;10.122;2023-09-19T04:10:24;15.40;99.90
11944;DHT22;6031;50.220;10.122;2023-09-19T04:12:53;15.40;99.90
11944;DHT22;6031;50.220;10.122;2023-09-19T04:15:20;15.40;99.90
11944;DHT22;6031;50.220;10.122;2023-09-19T04:17:48;15.40;99.90
11944;DHT22;6031;50.220;10.122;2023-09-19T04:20:13;15.40;99.90
11944;DHT22;6031;50.220;10.122;2023-09-19T04:22:39;15.50;99.90
11944;DHT22;6031;50.220;10.122;2023-09-19T04:25:05;15.40;99.90
11944;DHT22;6031;50.220;10.122;2023-09-19T04:27:32;15.30;99.90
11944;DHT22;6031;50.220;10.122;2023-09-19T04:29:57;15.20;99.90
11944;DHT22;6031;50.220;10.122;2023-09-19T04:32:27;15.20;99.90
11944;DHT22;6031;50.220;10.122;2023-09-19T04:34:53;15.20;99.90
11944;DHT22;6031;50.220;10.122;2023-09-19T04:37:19;15.10;99.90
11944;DHT22;6031;50.220;10.122;2023-09-19T04:39:44;15.00;99.90
11944;DHT22;6031;50.220;10.122;2023-09-19T04:42:13;15.00;99.90
11944;DHT22;6031;50.220;10.122;2023-09-19T04:44:40;15.00;99.90
11944;DHT22;6031;50.220;10.122;2023-09-19T04:47:05;15.00;99.90
11944;DHT22;6031;50.220;10.122;2023-09-19T04:49:31;15.00;99.90
11944;DHT22;6031;50.220;10.122;2023-09-19T04:51:57;15.00;99.90
11944;DHT22;6031;50.220;10.122;2023-09-19T04:54:22;14.90;99.90
11944;DHT22;6031;50.220;10.122;2023-09-19T04:56:48;14.90;99.90
11944;DHT22;6031;50.220;10.122;2023-09-19T04:59:13;15.00;99.90
11944;DHT22;6031;50.220;10.122;2023-09-19T05:01:40;14.90;99.90
11944;DHT22;6031;50.220;10.122;2023-09-19T05:04:05;14.90;99.90
11944;DHT22;6031;50.220;10.122;2023-09-19T05:06:31;14.80;99.90
11944;DHT22;6031;50.220;10.122;2023-09-19T05:08:57;14.80;99.90
11944;DHT22;6031;50.220;10.122;2023-09-19T05:11:22;14.90;99.90
11944;DHT22;6031;50.220;10.122;2023-09-19T05:13:48;14.90;99.90
11944;DHT22;6031;50.220;10.122;2023-09-19T05:16:18;14.90;99.90
11944;DHT22;6031;50.220;10.122;2023-09-19T05:18:43;14.90;99.90
11944;DHT22;6031;50.220;10.122;2023-09-19T05:21:09;14.90;99.90
11944;DHT22;6031;50.220;10.122;2023-09-19T05:23:34;14.90;99.90
11944;DHT22;6031;50.220;10.122;2023-09-19T05:26:00;15.00;99.90
11944;DHT22;6031;50.220;10.122;2023-09-19T05:28:25;15.00;99.90
11944;DHT22;6031;50.220;10.122;2023-09-19T05:30:52;15.00;99.90
11944;DHT22;6031;50.220;10.122;2023-09-19T05:33:18;15.10;99.90
11944;DHT22;6031;50.220;10.122;2023-09-19T05:35:44;15.30;99.90
11944;DHT22;6031;50.220;10.122;2023-09-19T05:38:12;15.40;99.90
11944;DHT22;6031;50.220;10.122;2023-09-19T05:40:39;15.50;99.90
11944;DHT22;6031;50.220;10.122;2023-09-19T05:43:08;15.50;99.90
11944;DHT22;6031;50.220;10.122;2023-09-19T05:45:33;15.60;99.90
11944;DHT22;6031;50.220;10.122;2023-09-19T05:48:11;15.70;99.90
11944;DHT22;6031;50.220;10.122;2023-09-19T05:50:39;15.70;99.90
11944;DHT22;6031;50.220;10.122;2023-09-19T05:53:05;15.80;99.90
11944;DHT22;6031;50.220;10.122;2023-09-19T05:55:31;15.90;99.90
11944;DHT22;6031;50.220;10.122;2023-09-19T05:57:56;15.90;99.90
11944;DHT22;6031;50.220;10.122;2023-09-19T06:00:24;16.00;99.90
11944;DHT22;6031;50.220;10.122;2023-09-19T06:02:54;16.10;99.90
11944;DHT22;6031;50.220;10.122;2023-09-19T06:05:21;16.50;99.90
11944;DHT22;6031;50.220;10.122;2023-09-19T06:07:46;17.20;1.00
11944;DHT22;6031;50.220;10.122;2023-09-19T06:10:12;17.70;1.00
11944;DHT22;6031;50.220;10.122;2023-09-19T06:12:40;17.70;1.00
11944;DHT22;6031;50.220;10.122;2023-09-19T06:15:06;17.60;1.00
11944;DHT22;6031;50.220;10.122;2023-09-19T06:17:34;17.40;1.00
11944;DHT22;6031;50.220;10.122;2023-09-19T06:20:06;17.30;99.90
11944;DHT22;6031;50.220;10.122;2023-09-19T06:22:43;17.20;15.00
11944;DHT22;6031;50.220;10.122;2023-09-19T06:25:13;17.40;1.00
11944;DHT22;6031;50.220;10.122;2023-09-19T06:27:52;17.70;99.90
11944;DHT22;6031;50.220;10.122;2023-09-19T06:30:19;17.80;99.90
11944;DHT22;6031;50.220;10.122;2023-09-19T06:32:45;18.00;1.00
11944;DHT22;6031;50.220;10.122;2023-09-19T06:35:13;18.10;99.90
11944;DHT22;6031;50.220;10.122;2023-09-19T06:37:39;18.30;1.00
11944;DHT22;6031;50.220;10.122;2023-09-19T06:40:12;18.50;1.00
11944;DHT22;6031;50.220;10.122;2023-09-19T06:42:51;18.20;1.00
11944;DHT22;6031;50.220;10.122;2023-09-19T06:45:21;18.00;99.90
11944;DHT22;6031;50.220;10.122;2023-09-19T06:47:49;17.90;99.90
11944;DHT22;6031;50.220;10.122;2023-09-19T06:50:15;17.80;1.00
11944;DHT22;6031;50.220;10.122;2023-09-19T06:52:44;17.70;1.00
11944;DHT22;6031;50.220;10.122;2023-09-19T06:55:10;17.50;1.00
11944;DHT22;6031;50.220;10.122;2023-09-19T06:57:38;17.60;94.60
11944;DHT22;6031;50.220;10.122;2023-09-19T07:00:06;17.80;99.90
11944;DHT22;6031;50.220;10.122;2023-09-19T07:02:43;17.80;1.00
11944;DHT22;6031;50.220;10.122;2023-09-19T07:05:09;17.90;99.90
11944;DHT22;6031;50.220;10.122;2023-09-19T07:07:35;17.80;99.90
11944;DHT22;6031;50.220;10.122;2023-09-19T07:10:04;17.70;1.00
11944;DHT22;6031;50.220;10.122;2023-09-19T07:12:37;18.10;99.90
11944;DHT22;6031;50.220;10.122;2023-09-19T07:15:02;18.80;1.00
11944;DHT22;6031;50.220;10.122;2023-09-19T07:17:28;19.00;1.00
11944;DHT22;6031;50.220;10.122;2023-09-19T07:19:55;19.30;99.90
11944;DHT22;6031;50.220;10.122;2023-09-19T07:22:20;19.60;99.90
11944;DHT22;6031;50.220;10.122;2023-09-19T07:24:46;19.70;99.90
11944;DHT22;6031;50.220;10.122;2023-09-19T07:27:12;19.50;99.90
11944;DHT22;6031;50.220;10.122;2023-09-19T07:29:37;19.60;99.90
11944;DHT22;6031;50.220;10.122;2023-09-19T07:32:03;19.40;99.90
11944;DHT22;6031;50.220;10.122;2023-09-19T07:34:29;19.30;99.90
11944;DHT22;6031;50.220;10.122;2023-09-19T07:36:54;19.40;99.90
11944;DHT22;6031;50.220;10.122;2023-09-19T07:39:20;19.20;99.90
11944;DHT22;6031;50.220;10.122;2023-09-19T07:41:45;19.40;99.90
11944;DHT22;6031;50.220;10.122;2023-09-19T07:44:11;19.30;99.90
11944;DHT22;6031;50.220;10.122;2023-09-19T07:46:37;19.50;1.00
11944;DHT22;6031;50.220;10.122;2023-09-19T07:49:03;19.60;1.00
11944;DHT22;6031;50.220;10.122;2023-09-19T07:51:30;19.80;1.00
11944;DHT22;6031;50.220;10.122;2023-09-19T07:53:56;20.20;99.90
11944;DHT22;6031;50.220;10.122;2023-09-19T07:56:22;19.90;31.00
11944;DHT22;6031;50.220;10.122;2023-09-19T07:58:48;19.50;65.30
11944;DHT22;6031;50.220;10.122;2023-09-19T08:01:13;19.20;17.70
11944;DHT22;6031;50.220;10.122;2023-09-19T08:03:40;19.10;99.90
11944;DHT22;6031;50.220;10.122;2023-09-19T08:06:07;19.10;99.90
11944;DHT22;6031;50.220;10.122;2023-09-19T08:08:34;19.00;1.00
11944;DHT22;6031;50.220;10.122;2023-09-19T08:11:03;19.30;8.20
11944;DHT22;6031;50.220;10.122;2023-09-19T08:13:41;19.60;17.50
11944;DHT22;6031;50.220;10.122;2023-09-19T08:16:10;19.90;1.00
11944;DHT22;6031;50.220;10.122;2023-09-19T08:18:36;20.30;1.00
11944;DHT22;6031;50.220;10.122;2023-09-19T08:21:03;20.10;1.00
11944;DHT22;6031;50.220;10.122;2023-09-19T08:23:28;19.60;52.20
11944;DHT22;6031;50.220;10.122;2023-09-19T08:25:57;18.80;99.90
11944;DHT22;6031;50.220;10.122;2023-09-19T08:28:23;18.70;99.90
11944;DHT22;6031;50.220;10.122;2023-09-19T08:30:50;18.80;99.90
11944;DHT22;6031;50.220;10.122;2023-09-19T08:33:16;18.80;99.90
11944;DHT22;6031;50.220;10.122;2023-09-19T08:35:41;19.00;1.00
11944;DHT22;6031;50.220;10.122;2023-09-19T08:38:07;19.00;1.00
11944;DHT22;6031;50.220;10.122;2023-09-19T08:40:37;19.00;1.00
11944;DHT22;6031;50.220;10.122;2023-09-19T08:43:05;18.90;1.00
11944;DHT22;6031;50.220;10.122;2023-09-19T08:45:33;19.00;1.00
11944;DHT22;6031;50.220;10.122;2023-09-19T08:48:23;19.10;1.00
11944;DHT22;6031;50.220;10.122;2023-09-19T08:54:03;21.00;99.90
11944;DHT22;6031;50.220;10.122;2023-09-19T08:56:35;21.80;1.00
11944;DHT22;6031;50.220;10.122;2023-09-19T08:59:05;21.80;1.00
11944;DHT22;6031;50.220;10.122;2023-09-19T09:01:33;21.70;1.00
11944;DHT22;6031;50.220;10.122;2023-09-19T09:04:00;22.00;1.00
11944;DHT22;6031;50.220;10.122;2023-09-19T09:06:26;22.30;1.00
11944;DHT22;6031;50.220;10.122;2023-09-19T09:08:53;22.40;1.00
11944;DHT22;6031;50.220;10.122;2023-09-19T09:11:20;22.10;1.00
11944;DHT22;6031;50.220;10.122;2023-09-19T09:13:46;21.90;1.00
11944;DHT22;6031;50.220;10.122;2023-09-19T09:16:12;21.60;1.00
11944;DHT22;6031;50.220;10.122;2023-09-19T09:18:39;21.30;1.00
11944;DHT22;6031;50.220;10.122;2023-09-19T09:21:05;22.00;1.00
11944;DHT22;6031;50.220;10.122;2023-09-19T09:23:31;23.20;1.00
11944;DHT22;6031;50.220;10.122;2023-09-19T09:26:00;24.10;1.00
11944;DHT22;6031;50.220;10.122;2023-09-19T09:28:32;24.50;1.00
11944;DHT22;6031;50.220;10.122;2023-09-19T09:30:59;24.00;1.00
11944;DHT22;6031;50.220;10.122;2023-09-19T09:33:25;23.50;1.00
11944;DHT22;6031;50.220;10.122;2023-09-19T09:36:02;23.30;1.00
11944;DHT22;6031;50.220;10.122;2023-09-19T09:38:48;23.80;1.00
11944;DHT22;6031;50.220;10.122;2023-09-19T09:41:16;24.20;1.00
11944;DHT22;6031;50.220;10.122;2023-09-19T09:43:53;23.90;1.00
11944;DHT22;6031;50.220;10.122;2023-09-19T09:46:19;24.60;1.00
11944;DHT22;6031;50.220;10.122;2023-09-19T09:51:50;22.20;1.00
11944;DHT22;6031;50.220;10.122;2023-09-19T09:54:23;20.90;1.00
11944;DHT22;6031;50.220;10.122;2023-09-19T09:57:00;21.10;1.00
11944;DHT22;6031;50.220;10.122;2023-09-19T10:02:39;23.30;1.00
11944;DHT22;6031;50.220;10.122;2023-09-19T10:05:16;23.20;1.00
11944;DHT22;6031;50.220;10.122;2023-09-19T10:07:54;24.10;1.00
11944;DHT22;6031;50.220;10.122;2023-09-19T10:10:43;24.10;1.00
11944;DHT22;6031;50.220;10.122;2023-09-19T10:13:20;24.60;1.00
11944;DHT22;6031;50.220;10.122;2023-09-19T10:15:50;23.90;1.00
11944;DHT22;6031;50.220;10.122;2023-09-19T10:18:21;23.80;1.00
11944;DHT22;6031;50.220;10.122;2023-09-19T10:20:47;24.40;1.00
11944;DHT22;6031;50.220;10.122;2023-09-19T10:23:19;24.60;1.00
11944;DHT22;6031;50.220;10.122;2023-09-19T10:25:50;24.90;1.00
11944;DHT22;6031;50.220;10.122;2023-09-19T10:28:17;25.30;1.00
11944;DHT22;6031;50.220;10.122;2023-09-19T10:30:48;24.70;99.90
11944;DHT22;6031;50.220;10.122;2023-09-19T10:33:16;24.30;1.00
11944;DHT22;6031;50.220;10.122;2023-09-19T10:35:44;25.40;99.90
11944;DHT22;6031;50.220;10.122;2023-09-19T10:38:11;26.90;99.90
11944;DHT22;6031;50.220;10.122;2023-09-19T10:40:38;25.70;99.90
11944;DHT22;6031;50.220;10.122;2023-09-19T10:43:12;25.50;99.90
11944;DHT22;6031;50.220;10.122;2023-09-19T10:45:39;25.20;99.90
11944;DHT22;6031;50.220;10.122;2023-09-19T10:48:05;26.90;99.90
11944;DHT22;6031;50.220;10.122;2023-09-19T10:50:45;27.10;99.90
11944;DHT22;6031;50.220;10.122;2023-09-19T10:53:13;26.40;99.90
11944;DHT22;6031;50.220;10.122;2023-09-19T10:55:39;25.60;99.90
11944;DHT22;6031;50.220;10.122;2023-09-19T10:58:06;25.70;99.90
11944;DHT22;6031;50.220;10.122;2023-09-19T11:00:53;26.30;99.90
11944;DHT22;6031;50.220;10.122;2023-09-19T11:03:20;26.60;99.90
11944;DHT22;6031;50.220;10.122;2023-09-19T11:06:04;25.40;99.90
11944;DHT22;6031;50.220;10.122;2023-09-19T11:20:15;23.30;99.90
11944;DHT22;6031;50.220;10.122;2023-09-19T11:30:36;27.30;99.90
11944;DHT22;6031;50.220;10.122;2023-09-19T11:33:22;28.30;99.90
11944;DHT22;6031;50.220;10.122;2023-09-19T11:43:45;27.10;99.90
11944;DHT22;6031;50.220;10.122;2023-09-19T11:46:11;26.70;99.90
11944;DHT22;6031;50.220;10.122;2023-09-19T11:48:39;27.90;99.90
11944;DHT22;6031;50.220;10.122;2023-09-19T11:51:15;28.60;99.90
11944;DHT22;6031;50.220;10.122;2023-09-19T11:53:46;30.10;99.90
11944;DHT22;6031;50.220;10.122;2023-09-19T11:56:17;30.90;99.90
11944;DHT22;6031;50.220;10.122;2023-09-19T11:58:44;29.90;99.90
11944;DHT22;6031;50.220;10.122;2023-09-19T12:01:13;29.50;99.90
11944;DHT22;6031;50.220;10.122;2023-09-19T12:03:42;30.10;99.90
11944;DHT22;6031;50.220;10.122;2023-09-19T12:06:16;30.70;99.90
11944;DHT22;6031;50.220;10.122;2023-09-19T12:08:43;31.00;99.90
11944;DHT22;6031;50.220;10.122;2023-09-19T12:11:13;31.10;99.90
11944;DHT22;6031;50.220;10.122;2023-09-19T12:13:45;31.50;99.90
11944;DHT22;6031;50.220;10.122;2023-09-19T12:16:21;29.60;99.90
11944;DHT22;6031;50.220;10.122;2023-09-19T12:18:48;29.30;99.90
11944;DHT22;6031;50.220;10.122;2023-09-19T12:21:31;28.50;99.90
11944;DHT22;6031;50.220;10.122;2023-09-19T12:26:23;27.70;99.90
11944;DHT22;6031;50.220;10.122;2023-09-19T12:28:49;27.40;99.90
11944;DHT22;6031;50.220;10.122;2023-09-19T12:31:18;27.10;99.90
11944;DHT22;6031;50.220;10.122;2023-09-19T12:33:45;26.40;99.90
11944;DHT22;6031;50.220;10.122;2023-09-19T12:36:23;26.20;99.90
11944;DHT22;6031;50.220;10.122;2023-09-19T12:38:50;26.50;99.90
11944;DHT22;6031;50.220;10.122;2023-09-19T12:41:19;27.10;99.90
11944;DHT22;6031;50.220;10.122;2023-09-19T12:43:46;27.40;99.90
11944;DHT22;6031;50.220;10.122;2023-09-19T12:46:11;27.40;99.90
11944;DHT22;6031;50.220;10.122;2023-09-19T12:48:37;27.00;99.90
11944;DHT22;6031;50.220;10.122;2023-09-19T12:51:11;27.10;99.90
11944;DHT22;6031;50.220;10.122;2023-09-19T12:53:42;27.00;99.90
11944;DHT22;6031;50.220;10.122;2023-09-19T12:56:10;27.00;99.90
11944;DHT22;6031;50.220;10.122;2023-09-19T12:58:59;26.80;99.90
11944;DHT22;6031;50.220;10.122;2023-09-19T13:01:28;25.90;99.90
11944;DHT22;6031;50.220;10.122;2023-09-19T13:04:21;26.40;99.90
11944;DHT22;6031;50.220;10.122;2023-09-19T13:06:55;26.70;99.90
11944;DHT22;6031;50.220;10.122;2023-09-19T13:09:26;25.80;99.90
11944;DHT22;6031;50.220;10.122;2023-09-19T13:12:04;24.70;99.90
11944;DHT22;6031;50.220;10.122;2023-09-19T13:14:32;24.10;99.90
11944;DHT22;6031;50.220;10.122;2023-09-19T13:17:06;24.20;99.90
11944;DHT22;6031;50.220;10.122;2023-09-19T13:19:44;23.60;99.90
11944;DHT22;6031;50.220;10.122;2023-09-19T13:25:16;22.70;99.90
11944;DHT22;6031;50.220;10.122;2023-09-19T13:27:51;23.20;99.90
11944;DHT22;6031;50.220;10.122;2023-09-19T13:30:18;23.50;99.90
11944;DHT22;6031;50.220;10.122;2023-09-19T13:32:45;23.30;99.90
11944;DHT22;6031;50.220;10.122;2023-09-19T13:35:12;23.00;99.90
11944;DHT22;6031;50.220;10.122;2023-09-19T13:37:40;23.20;99.90
11944;DHT22;6031;50.220;10.122;2023-09-19T13:40:11;23.20;99.90
11944;DHT22;6031;50.220;10.122;2023-09-19T13:42:37;23.30;99.90
11944;DHT22;6031;50.220;10.122;2023-09-19T13:45:04;23.40;99.90
11944;DHT22;6031;50.220;10.122;2023-09-19T13:47:33;23.70;99.90
11944;DHT22;6031;50.220;10.122;2023-09-19T13:49:59;23.50;99.90
11944;DHT22;6031;50.220;10.122;2023-09-19T13:52:26;23.30;99.90
11944;DHT22;6031;50.220;10.122;2023-09-19T13:54:54;23.60;99.90
11944;DHT22;6031;50.220;10.122;2023-09-19T13:57:22;23.90;99.90
11944;DHT22;6031;50.220;10.122;2023-09-19T13:59:48;24.20;99.90
11944;DHT22;6031;50.220;10.122;2023-09-19T14:02:13;23.80;99.90
11944;DHT22;6031;50.220;10.122;2023-09-19T14:04:39;24.00;99.90
11944;DHT22;6031;50.220;10.122;2023-09-19T14:07:05;23.60;99.90
11944;DHT22;6031;50.220;10.122;2023-09-19T14:09:32;23.10;99.90
11944;DHT22;6031;50.220;10.122;2023-09-19T14:11:59;22.60;99.90
11944;DHT22;6031;50.220;10.122;2023-09-19T14:14:24;22.30;99.90
11944;DHT22;6031;50.220;10.122;2023-09-19T14:16:50;22.30;99.90
11944;DHT22;6031;50.220;10.122;2023-09-19T14:19:17;22.40;99.90
11944;DHT22;6031;50.220;10.122;2023-09-19T14:21:43;22.80;99.90
11944;DHT22;6031;50.220;10.122;2023-09-19T14:24:09;23.30;99.90
11944;DHT22;6031;50.220;10.122;2023-09-19T14:26:35;23.30;99.90
11944;DHT22;6031;50.220;10.122;2023-09-19T14:29:01;23.40;99.90
11944;DHT22;6031;50.220;10.122;2023-09-19T14:31:27;23.20;99.90
11944;DHT22;6031;50.220;10.122;2023-09-19T14:33:56;23.00;99.90
11944;DHT22;6031;50.220;10.122;2023-09-19T14:36:25;23.20;99.90
11944;DHT22;6031;50.220;10.122;2023-09-19T14:38:55;23.10;99.90
11944;DHT22;6031;50.220;10.122;2023-09-19T14:41:21;22.30;99.90
11944;DHT22;6031;50.220;10.122;2023-09-19T14:43:47;22.10;99.90
11944;DHT22;6031;50.220;10.122;2023-09-19T14:46:12;22.20;99.90
11944;DHT22;6031;50.220;10.122;2023-09-19T14:48:39;22.20;99.90
11944;DHT22;6031;50.220;10.122;2023-09-19T14:51:06;22.30;99.90
11944;DHT22;6031;50.220;10.122;2023-09-19T14:53:34;22.50;99.90
11944;DHT22;6031;50.220;10.122;2023-09-19T14:56:04;22.60;99.90
11944;DHT22;6031;50.220;10.122;2023-09-19T14:58:30;22.40;99.90
11944;DHT22;6031;50.220;10.122;2023-09-19T15:01:10;21.80;99.90
11944;DHT22;6031;50.220;10.122;2023-09-19T15:03:36;21.70;99.90
11944;DHT22;6031;50.220;10.122;2023-09-19T15:06:03;21.70;99.90
11944;DHT22;6031;50.220;10.122;2023-09-19T15:08:33;21.60;99.90
11944;DHT22;6031;50.220;10.122;2023-09-19T15:11:04;21.30;99.90
11944;DHT22;6031;50.220;10.122;2023-09-19T15:13:31;21.10;99.90
11944;DHT22;6031;50.220;10.122;2023-09-19T15:16:01;21.20;99.90
11944;DHT22;6031;50.220;10.122;2023-09-19T15:18:28;21.20;99.90
11944;DHT22;6031;50.220;10.122;2023-09-19T15:20:55;20.90;99.90
11944;DHT22;6031;50.220;10.122;2023-09-19T15:23:20;20.70;99.90
11944;DHT22;6031;50.220;10.122;2023-09-19T15:25:49;20.80;99.90
11944;DHT22;6031;50.220;10.122;2023-09-19T15:28:15;20.90;99.90
11944;DHT22;6031;50.220;10.122;2023-09-19T15:30:41;21.00;99.90
11944;DHT22;6031;50.220;10.122;2023-09-19T15:33:06;21.00;99.90
11944;DHT22;6031;50.220;10.122;2023-09-19T15:35:32;20.80;99.90
11944;DHT22;6031;50.220;10.122;2023-09-19T15:37:57;20.80;99.90
11944;DHT22;6031;50.220;10.122;2023-09-19T15:40:26;20.80;99.90
11944;DHT22;6031;50.220;10.122;2023-09-19T15:42:54;20.80;99.90
11944;DHT22;6031;50.220;10.122;2023-09-19T15:45:19;20.80;99.90
11944;DHT22;6031;50.220;10.122;2023-09-19T15:47:44;20.80;99.90
11944;DHT22;6031;50.220;10.122;2023-09-19T15:50:10;20.60;99.90
11944;DHT22;6031;50.220;10.122;2023-09-19T15:52:39;20.60;99.90
11944;DHT22;6031;50.220;10.122;2023-09-19T15:55:06;20.50;99.90
11944;DHT22;6031;50.220;10.122;2023-09-19T15:57:38;20.40;99.90
11944;DHT22;6031;50.220;10.122;2023-09-19T16:00:05;20.40;99.90
11944;DHT22;6031;50.220;10.122;2023-09-19T16:02:36;20.30;99.90
11944;DHT22;6031;50.220;10.122;2023-09-19T16:05:01;20.20;99.90
11944;DHT22;6031;50.220;10.122;2023-09-19T16:07:32;20.10;99.90
11944;DHT22;6031;50.220;10.122;2023-09-19T16:09:59;20.00;99.90
11944;DHT22;6031;50.220;10.122;2023-09-19T16:12:25;19.90;99.90
11944;DHT22;6031;50.220;10.122;2023-09-19T16:14:51;19.80;99.90
11944;DHT22;6031;50.220;10.122;2023-09-19T16:17:16;19.80;1.00
11944;DHT22;6031;50.220;10.122;2023-09-19T16:19:42;19.70;1.00
11944;DHT22;6031;50.220;10.122;2023-09-19T16:22:09;19.60;1.00
11944;DHT22;6031;50.220;10.122;2023-09-19T16:24:35;19.70;1.00
11944;DHT22;6031;50.220;10.122;2023-09-19T16:27:00;19.60;1.00
11944;DHT22;6031;50.220;10.122;2023-09-19T16:29:26;19.60;1.00
11944;DHT22;6031;50.220;10.122;2023-09-19T16:31:52;19.50;1.00
11944;DHT22;6031;50.220;10.122;2023-09-19T16:34:18;19.40;1.00
11944;DHT22;6031;50.220;10.122;2023-09-19T16:36:43;19.40;1.00
11944;DHT22;6031;50.220;10.122;2023-09-19T16:39:09;19.40;1.00
11944;DHT22;6031;50.220;10.122;2023-09-19T16:41:36;19.30;1.00
11944;DHT22;6031;50.220;10.122;2023-09-19T16:44:02;19.20;1.00